sensor_id;sensor_type;location;lat;lon;timestamp;P1;durP1;ratioP1;P2;durP2;ratioP2
51216;SDS011;37283;49.760;8.648;2024-01-06T00:01:38;7.22;;;1.90;;
51216;SDS011;37283;49.760;8.648;2024-01-06T00:04:05;4.47;;;1.63;;
51216;SDS011;37283;49.760;8.648;2024-01-06T00:06:33;5.53;;;1.60;;
51216;SDS011;37283;49.760;8.648;2024-01-06T00:09:00;8.63;;;1.58;;
51216;SDS011;37283;49.760;8.648;2024-01-06T00:11:27;5.88;;;1.52;;
51216;SDS011;37283;49.760;8.648;2024-01-06T00:13:54;8.45;;;1.83;;
51216;SDS011;37283;49.760;8.648;2024-01-06T00:16:23;6.97;;;1.83;;
51216;SDS011;37283;49.760;8.648;2024-01-06T00:18:57;5.25;;;1.63;;
51216;SDS011;37283;49.760;8.648;2024-01-06T00:24:42;5.75;;;1.73;;
51216;SDS011;37283;49.760;8.648;2024-01-06T00:27:09;5.80;;;1.70;;
51216;SDS011;37283;49.760;8.648;2024-01-06T00:29:36;6.45;;;1.80;;
51216;SDS011;37283;49.760;8.648;2024-01-06T00:32:02;5.43;;;1.40;;
51216;SDS011;37283;49.760;8.648;2024-01-06T00:34:30;6.80;;;2.08;;
51216;SDS011;37283;49.760;8.648;2024-01-06T00:36:58;6.20;;;1.92;;
51216;SDS011;37283;49.760;8.648;2024-01-06T00:39:45;6.43;;;1.90;;
51216;SDS011;37283;49.760;8.648;2024-01-06T00:46:58;5.07;;;1.67;;
51216;SDS011;37283;49.760;8.648;2024-01-06T00:50:37;7.43;;;1.63;;
51216;SDS011;37283;49.760;8.648;2024-01-06T00:53:05;7.45;;;1.85;;
51216;SDS011;37283;49.760;8.648;2024-01-06T00:55:32;7.32;;;2.47;;
51216;SDS011;37283;49.760;8.648;2024-01-06T00:57:58;6.90;;;2.03;;
51216;SDS011;37283;49.760;8.648;2024-01-06T01:00:25;7.35;;;1.92;;
51216;SDS011;37283;49.760;8.648;2024-01-06T01:02:55;5.50;;;1.75;;
51216;SDS011;37283;49.760;8.648;2024-01-06T01:11:02;6.25;;;1.90;;
51216;SDS011;37283;49.760;8.648;2024-01-06T01:15:03;6.97;;;1.88;;
51216;SDS011;37283;49.760;8.648;2024-01-06T01:18:59;5.75;;;1.77;;
51216;SDS011;37283;49.760;8.648;2024-01-06T01:24:01;6.90;;;1.52;;
51216;SDS011;37283;49.760;8.648;2024-01-06T01:31:28;6.63;;;2.00;;
51216;SDS011;37283;49.760;8.648;2024-01-06T01:33:57;7.13;;;2.22;;
51216;SDS011;37283;49.760;8.648;2024-01-06T01:39:22;5.88;;;1.80;;
51216;SDS011;37283;49.760;8.648;2024-01-06T01:42:16;7.00;;;1.90;;
51216;SDS011;37283;49.760;8.648;2024-01-06T01:45:05;5.70;;;2.30;;
51216;SDS011;37283;49.760;8.648;2024-01-06T01:48:15;7.05;;;2.17;;
51216;SDS011;37283;49.760;8.648;2024-01-06T01:51:55;7.53;;;1.88;;
51216;SDS011;37283;49.760;8.648;2024-01-06T01:54:23;5.22;;;1.92;;
51216;SDS011;37283;49.760;8.648;2024-01-06T02:02:25;5.97;;;2.13;;
51216;SDS011;37283;49.760;8.648;2024-01-06T02:04:52;6.97;;;2.13;;
51216;SDS011;37283;49.760;8.648;2024-01-06T02:16:20;6.53;;;2.17;;
51216;SDS011;37283;49.760;8.648;2024-01-06T02:19:13;6.45;;;1.80;;
51216;SDS011;37283;49.760;8.648;2024-01-06T02:21:43;6.18;;;2.00;;
51216;SDS011;37283;49.760;8.648;2024-01-06T02:24:10;6.85;;;2.15;;
51216;SDS011;37283;49.760;8.648;2024-01-06T02:31:15;3.60;;;1.38;;
51216;SDS011;37283;49.760;8.648;2024-01-06T02:34:18;3.72;;;1.30;;
51216;SDS011;37283;49.760;8.648;2024-01-06T02:36:45;3.83;;;1.50;;
51216;SDS011;37283;49.760;8.648;2024-01-06T02:39:12;3.83;;;1.52;;
51216;SDS011;37283;49.760;8.648;2024-01-06T02:41:39;4.32;;;1.33;;
51216;SDS011;37283;49.760;8.648;2024-01-06T02:48:18;7.90;;;1.60;;
51216;SDS011;37283;49.760;8.648;2024-01-06T02:57:24;5.00;;;1.40;;
51216;SDS011;37283;49.760;8.648;2024-01-06T02:59:50;4.22;;;1.35;;
51216;SDS011;37283;49.760;8.648;2024-01-06T03:02:17;4.80;;;1.50;;
51216;SDS011;37283;49.760;8.648;2024-01-06T03:07:38;5.55;;;1.77;;
51216;SDS011;37283;49.760;8.648;2024-01-06T03:10:05;5.70;;;1.70;;
51216;SDS011;37283;49.760;8.648;2024-01-06T03:12:33;5.53;;;2.10;;
51216;SDS011;37283;49.760;8.648;2024-01-06T03:20:55;6.05;;;2.05;;
51216;SDS011;37283;49.760;8.648;2024-01-06T03:24:51;6.80;;;2.00;;
51216;SDS011;37283;49.760;8.648;2024-01-06T03:27:20;5.93;;;1.90;;
51216;SDS011;37283;49.760;8.648;2024-01-06T03:29:48;6.22;;;1.73;;
51216;SDS011;37283;49.760;8.648;2024-01-06T03:32:15;5.82;;;1.95;;
51216;SDS011;37283;49.760;8.648;2024-01-06T03:38:56;7.07;;;2.22;;
51216;SDS011;37283;49.760;8.648;2024-01-06T03:41:23;7.32;;;2.10;;
51216;SDS011;37283;49.760;8.648;2024-01-06T03:43:49;7.22;;;1.90;;
51216;SDS011;37283;49.760;8.648;2024-01-06T03:46:16;6.38;;;1.75;;
51216;SDS011;37283;49.760;8.648;2024-01-06T03:48:43;5.68;;;1.80;;
51216;SDS011;37283;49.760;8.648;2024-01-06T03:51:10;3.33;;;1.50;;
51216;SDS011;37283;49.760;8.648;2024-01-06T03:56:29;4.50;;;1.65;;
51216;SDS011;37283;49.760;8.648;2024-01-06T03:58:56;5.13;;;1.80;;
51216;SDS011;37283;49.760;8.648;2024-01-06T04:01:22;7.45;;;2.55;;
51216;SDS011;37283;49.760;8.648;2024-01-06T04:03:49;4.30;;;2.00;;
51216;SDS011;37283;49.760;8.648;2024-01-06T04:06:25;4.93;;;2.00;;
51216;SDS011;37283;49.760;8.648;2024-01-06T04:08:52;8.13;;;2.30;;
51216;SDS011;37283;49.760;8.648;2024-01-06T04:13:47;6.93;;;1.90;;
51216;SDS011;37283;49.760;8.648;2024-01-06T04:16:14;5.13;;;1.88;;
51216;SDS011;37283;49.760;8.648;2024-01-06T04:18:41;3.83;;;1.80;;
51216;SDS011;37283;49.760;8.648;2024-01-06T04:21:07;5.63;;;2.10;;
51216;SDS011;37283;49.760;8.648;2024-01-06T04:23:35;3.00;;;1.70;;
51216;SDS011;37283;49.760;8.648;2024-01-06T04:26:02;7.93;;;2.15;;
51216;SDS011;37283;49.760;8.648;2024-01-06T04:28:31;6.45;;;1.85;;
51216;SDS011;37283;49.760;8.648;2024-01-06T04:30:57;5.40;;;2.03;;
51216;SDS011;37283;49.760;8.648;2024-01-06T04:33:24;5.75;;;2.10;;
51216;SDS011;37283;49.760;8.648;2024-01-06T04:35:51;7.93;;;2.25;;
51216;SDS011;37283;49.760;8.648;2024-01-06T04:42:26;6.70;;;1.90;;
51216;SDS011;37283;49.760;8.648;2024-01-06T04:44:53;6.47;;;2.08;;
51216;SDS011;37283;49.760;8.648;2024-01-06T04:55:08;6.35;;;2.05;;
51216;SDS011;37283;49.760;8.648;2024-01-06T05:18:30;6.18;;;2.17;;
51216;SDS011;37283;49.760;8.648;2024-01-06T05:21:22;3.13;;;1.60;;
51216;SDS011;37283;49.760;8.648;2024-01-06T05:23:49;4.03;;;1.90;;
51216;SDS011;37283;49.760;8.648;2024-01-06T05:26:15;6.45;;;2.13;;
51216;SDS011;37283;49.760;8.648;2024-01-06T05:28:42;6.85;;;1.90;;
51216;SDS011;37283;49.760;8.648;2024-01-06T05:35:21;3.90;;;1.77;;
51216;SDS011;37283;49.760;8.648;2024-01-06T05:37:47;5.50;;;2.10;;
51216;SDS011;37283;49.760;8.648;2024-01-06T05:40:14;7.63;;;2.10;;
51216;SDS011;37283;49.760;8.648;2024-01-06T05:42:41;6.80;;;2.42;;
51216;SDS011;37283;49.760;8.648;2024-01-06T05:45:10;4.07;;;2.20;;
51216;SDS011;37283;49.760;8.648;2024-01-06T05:47:39;6.95;;;2.35;;
51216;SDS011;37283;49.760;8.648;2024-01-06T05:50:07;5.45;;;2.08;;
51216;SDS011;37283;49.760;8.648;2024-01-06T05:54:19;6.70;;;2.15;;
51216;SDS011;37283;49.760;8.648;2024-01-06T05:56:46;5.35;;;2.08;;
51216;SDS011;37283;49.760;8.648;2024-01-06T05:59:12;4.47;;;2.30;;
51216;SDS011;37283;49.760;8.648;2024-01-06T06:01:39;4.28;;;2.03;;
51216;SDS011;37283;49.760;8.648;2024-01-06T06:04:06;4.82;;;2.20;;
51216;SDS011;37283;49.760;8.648;2024-01-06T06:06:33;6.88;;;2.60;;
51216;SDS011;37283;49.760;8.648;2024-01-06T06:09:00;5.60;;;2.65;;
51216;SDS011;37283;49.760;8.648;2024-01-06T06:17:35;7.07;;;2.47;;
51216;SDS011;37283;49.760;8.648;2024-01-06T06:20:03;5.90;;;2.20;;
51216;SDS011;37283;49.760;8.648;2024-01-06T06:22:30;6.05;;;2.60;;
51216;SDS011;37283;49.760;8.648;2024-01-06T06:24:57;4.45;;;2.45;;
51216;SDS011;37283;49.760;8.648;2024-01-06T06:27:25;4.75;;;2.40;;
51216;SDS011;37283;49.760;8.648;2024-01-06T06:29:53;5.00;;;2.42;;
51216;SDS011;37283;49.760;8.648;2024-01-06T06:37:09;5.40;;;2.50;;
51216;SDS011;37283;49.760;8.648;2024-01-06T06:40:21;6.70;;;2.50;;
51216;SDS011;37283;49.760;8.648;2024-01-06T06:47:19;7.10;;;3.00;;
51216;SDS011;37283;49.760;8.648;2024-01-06T06:52:50;6.78;;;2.70;;
51216;SDS011;37283;49.760;8.648;2024-01-06T06:55:16;6.82;;;2.50;;
51216;SDS011;37283;49.760;8.648;2024-01-06T06:57:44;6.88;;;2.75;;
51216;SDS011;37283;49.760;8.648;2024-01-06T07:00:11;5.80;;;2.60;;
51216;SDS011;37283;49.760;8.648;2024-01-06T07:02:39;10.02;;;2.58;;
51216;SDS011;37283;49.760;8.648;2024-01-06T07:13:24;9.68;;;3.00;;
51216;SDS011;37283;49.760;8.648;2024-01-06T07:15:51;6.45;;;2.90;;
51216;SDS011;37283;49.760;8.648;2024-01-06T07:18:26;5.80;;;3.20;;
51216;SDS011;37283;49.760;8.648;2024-01-06T07:20:53;6.75;;;2.95;;
51216;SDS011;37283;49.760;8.648;2024-01-06T07:23:20;5.07;;;2.55;;
51216;SDS011;37283;49.760;8.648;2024-01-06T07:25:46;4.80;;;2.83;;
51216;SDS011;37283;49.760;8.648;2024-01-06T07:36:03;6.78;;;2.80;;
51216;SDS011;37283;49.760;8.648;2024-01-06T07:41:22;4.70;;;2.70;;
51216;SDS011;37283;49.760;8.648;2024-01-06T07:43:49;6.07;;;3.05;;
51216;SDS011;37283;49.760;8.648;2024-01-06T07:46:16;5.38;;;2.92;;
51216;SDS011;37283;49.760;8.648;2024-01-06T07:55:31;8.55;;;2.80;;
51216;SDS011;37283;49.760;8.648;2024-01-06T07:57:58;9.25;;;3.60;;
51216;SDS011;37283;49.760;8.648;2024-01-06T08:00:25;6.68;;;3.15;;
51216;SDS011;37283;49.760;8.648;2024-01-06T08:02:51;6.90;;;3.45;;
51216;SDS011;37283;49.760;8.648;2024-01-06T08:05:18;7.20;;;3.10;;
51216;SDS011;37283;49.760;8.648;2024-01-06T08:07:44;8.05;;;3.08;;
51216;SDS011;37283;49.760;8.648;2024-01-06T08:10:11;7.75;;;3.28;;
51216;SDS011;37283;49.760;8.648;2024-01-06T08:12:38;6.60;;;2.97;;
51216;SDS011;37283;49.760;8.648;2024-01-06T08:15:05;5.50;;;3.20;;
51216;SDS011;37283;49.760;8.648;2024-01-06T08:17:33;6.22;;;3.20;;
51216;SDS011;37283;49.760;8.648;2024-01-06T08:20:00;5.97;;;3.20;;
51216;SDS011;37283;49.760;8.648;2024-01-06T08:22:26;7.32;;;3.50;;
51216;SDS011;37283;49.760;8.648;2024-01-06T08:24:53;6.55;;;3.17;;
51216;SDS011;37283;49.760;8.648;2024-01-06T08:27:20;9.10;;;3.65;;
51216;SDS011;37283;49.760;8.648;2024-01-06T08:29:47;6.90;;;3.65;;
51216;SDS011;37283;49.760;8.648;2024-01-06T08:32:14;6.15;;;3.60;;
51216;SDS011;37283;49.760;8.648;2024-01-06T08:34:41;9.68;;;3.60;;
51216;SDS011;37283;49.760;8.648;2024-01-06T08:37:07;10.32;;;3.65;;
51216;SDS011;37283;49.760;8.648;2024-01-06T08:39:34;9.95;;;3.80;;
51216;SDS011;37283;49.760;8.648;2024-01-06T08:42:00;6.85;;;3.72;;
51216;SDS011;37283;49.760;8.648;2024-01-06T08:44:27;6.60;;;3.55;;
51216;SDS011;37283;49.760;8.648;2024-01-06T08:46:54;5.47;;;3.58;;
51216;SDS011;37283;49.760;8.648;2024-01-06T08:49:21;8.45;;;3.85;;
51216;SDS011;37283;49.760;8.648;2024-01-06T08:51:49;7.45;;;3.60;;
51216;SDS011;37283;49.760;8.648;2024-01-06T08:54:15;8.43;;;3.53;;
51216;SDS011;37283;49.760;8.648;2024-01-06T08:56:43;8.90;;;3.78;;
51216;SDS011;37283;49.760;8.648;2024-01-06T08:59:09;6.43;;;4.15;;
51216;SDS011;37283;49.760;8.648;2024-01-06T09:01:36;7.13;;;3.92;;
51216;SDS011;37283;49.760;8.648;2024-01-06T09:04:04;8.60;;;3.88;;
51216;SDS011;37283;49.760;8.648;2024-01-06T09:06:33;6.90;;;3.60;;
51216;SDS011;37283;49.760;8.648;2024-01-06T09:08:59;8.48;;;4.40;;
51216;SDS011;37283;49.760;8.648;2024-01-06T09:11:26;7.25;;;4.35;;
51216;SDS011;37283;49.760;8.648;2024-01-06T09:13:53;7.22;;;4.40;;
51216;SDS011;37283;49.760;8.648;2024-01-06T09:16:19;9.02;;;4.20;;
51216;SDS011;37283;49.760;8.648;2024-01-06T09:18:47;6.55;;;3.80;;
51216;SDS011;37283;49.760;8.648;2024-01-06T09:21:14;7.53;;;3.50;;
51216;SDS011;37283;49.760;8.648;2024-01-06T09:23:41;6.82;;;3.75;;
51216;SDS011;37283;49.760;8.648;2024-01-06T09:26:08;6.95;;;4.40;;
51216;SDS011;37283;49.760;8.648;2024-01-06T09:28:34;6.45;;;4.00;;
51216;SDS011;37283;49.760;8.648;2024-01-06T09:31:01;8.95;;;4.53;;
51216;SDS011;37283;49.760;8.648;2024-01-06T09:33:28;6.60;;;4.30;;
51216;SDS011;37283;49.760;8.648;2024-01-06T09:35:54;6.90;;;4.20;;
51216;SDS011;37283;49.760;8.648;2024-01-06T09:38:21;7.85;;;4.38;;
51216;SDS011;37283;49.760;8.648;2024-01-06T09:40:47;8.40;;;4.55;;
51216;SDS011;37283;49.760;8.648;2024-01-06T09:43:15;6.95;;;4.40;;
51216;SDS011;37283;49.760;8.648;2024-01-06T09:45:41;8.15;;;4.35;;
51216;SDS011;37283;49.760;8.648;2024-01-06T09:48:12;6.35;;;4.40;;
51216;SDS011;37283;49.760;8.648;2024-01-06T09:50:40;8.68;;;4.57;;
51216;SDS011;37283;49.760;8.648;2024-01-06T09:53:08;7.93;;;4.85;;
51216;SDS011;37283;49.760;8.648;2024-01-06T09:55:37;7.25;;;5.07;;
51216;SDS011;37283;49.760;8.648;2024-01-06T09:58:04;8.60;;;5.07;;
51216;SDS011;37283;49.760;8.648;2024-01-06T10:00:33;7.53;;;4.85;;
51216;SDS011;37283;49.760;8.648;2024-01-06T10:03:00;6.30;;;4.55;;
51216;SDS011;37283;49.760;8.648;2024-01-06T10:05:26;7.38;;;4.93;;
51216;SDS011;37283;49.760;8.648;2024-01-06T10:07:53;10.65;;;5.57;;
51216;SDS011;37283;49.760;8.648;2024-01-06T10:10:19;5.93;;;4.00;;
51216;SDS011;37283;49.760;8.648;2024-01-06T10:12:48;7.05;;;4.85;;
51216;SDS011;37283;49.760;8.648;2024-01-06T10:15:19;5.53;;;4.80;;
51216;SDS011;37283;49.760;8.648;2024-01-06T10:17:46;6.47;;;4.20;;
51216;SDS011;37283;49.760;8.648;2024-01-06T10:20:12;6.32;;;3.67;;
51216;SDS011;37283;49.760;8.648;2024-01-06T10:22:41;7.22;;;4.53;;
51216;SDS011;37283;49.760;8.648;2024-01-06T10:25:08;5.93;;;4.40;;
51216;SDS011;37283;49.760;8.648;2024-01-06T10:27:36;5.78;;;4.40;;
51216;SDS011;37283;49.760;8.648;2024-01-06T10:30:04;7.25;;;3.97;;
51216;SDS011;37283;49.760;8.648;2024-01-06T10:32:34;7.32;;;4.32;;
51216;SDS011;37283;49.760;8.648;2024-01-06T10:35:03;7.20;;;4.40;;
51216;SDS011;37283;49.760;8.648;2024-01-06T10:37:31;6.63;;;4.55;;
51216;SDS011;37283;49.760;8.648;2024-01-06T10:40:05;8.55;;;5.10;;
51216;SDS011;37283;49.760;8.648;2024-01-06T10:42:36;7.53;;;4.85;;
51216;SDS011;37283;49.760;8.648;2024-01-06T10:45:03;8.68;;;5.00;;
51216;SDS011;37283;49.760;8.648;2024-01-06T10:47:31;7.37;;;4.60;;
51216;SDS011;37283;49.760;8.648;2024-01-06T10:49:58;7.47;;;5.03;;
51216;SDS011;37283;49.760;8.648;2024-01-06T10:52:27;7.80;;;5.22;;
51216;SDS011;37283;49.760;8.648;2024-01-06T10:54:54;7.05;;;4.82;;
51216;SDS011;37283;49.760;8.648;2024-01-06T10:57:21;9.05;;;5.20;;
51216;SDS011;37283;49.760;8.648;2024-01-06T10:59:50;10.27;;;5.47;;
51216;SDS011;37283;49.760;8.648;2024-01-06T11:02:17;7.72;;;5.30;;
51216;SDS011;37283;49.760;8.648;2024-01-06T11:04:48;8.63;;;5.68;;
51216;SDS011;37283;49.760;8.648;2024-01-06T11:07:15;8.77;;;5.80;;
51216;SDS011;37283;49.760;8.648;2024-01-06T11:10:04;9.73;;;5.50;;
51216;SDS011;37283;49.760;8.648;2024-01-06T11:12:37;7.47;;;5.55;;
51216;SDS011;37283;49.760;8.648;2024-01-06T11:15:04;6.35;;;5.32;;
51216;SDS011;37283;49.760;8.648;2024-01-06T11:17:50;8.10;;;6.00;;
51216;SDS011;37283;49.760;8.648;2024-01-06T11:20:20;7.97;;;4.97;;
51216;SDS011;37283;49.760;8.648;2024-01-06T11:22:48;10.32;;;5.07;;
51216;SDS011;37283;49.760;8.648;2024-01-06T11:25:16;9.07;;;5.78;;
51216;SDS011;37283;49.760;8.648;2024-01-06T11:27:43;8.63;;;6.03;;
51216;SDS011;37283;49.760;8.648;2024-01-06T11:30:20;12.95;;;7.18;;
51216;SDS011;37283;49.760;8.648;2024-01-06T11:32:47;9.10;;;6.15;;
51216;SDS011;37283;49.760;8.648;2024-01-06T11:35:14;10.27;;;6.15;;
51216;SDS011;37283;49.760;8.648;2024-01-06T11:40:09;8.18;;;4.95;;
51216;SDS011;37283;49.760;8.648;2024-01-06T11:42:42;8.98;;;6.20;;
51216;SDS011;37283;49.760;8.648;2024-01-06T11:45:09;12.23;;;6.07;;
51216;SDS011;37283;49.760;8.648;2024-01-06T11:47:35;8.23;;;5.30;;
51216;SDS011;37283;49.760;8.648;2024-01-06T11:50:03;7.45;;;5.70;;
51216;SDS011;37283;49.760;8.648;2024-01-06T11:52:33;7.03;;;4.90;;
51216;SDS011;37283;49.760;8.648;2024-01-06T11:55:00;7.90;;;5.00;;
51216;SDS011;37283;49.760;8.648;2024-01-06T11:57:29;6.82;;;4.90;;
51216;SDS011;37283;49.760;8.648;2024-01-06T11:59:55;7.35;;;4.75;;
51216;SDS011;37283;49.760;8.648;2024-01-06T12:02:22;8.27;;;5.20;;
51216;SDS011;37283;49.760;8.648;2024-01-06T12:04:49;5.90;;;5.07;;
51216;SDS011;37283;49.760;8.648;2024-01-06T12:07:17;6.65;;;4.80;;
51216;SDS011;37283;49.760;8.648;2024-01-06T12:09:46;7.07;;;4.75;;
51216;SDS011;37283;49.760;8.648;2024-01-06T12:12:16;6.43;;;3.92;;
51216;SDS011;37283;49.760;8.648;2024-01-06T12:14:43;6.18;;;4.35;;
51216;SDS011;37283;49.760;8.648;2024-01-06T12:17:11;5.85;;;4.30;;
51216;SDS011;37283;49.760;8.648;2024-01-06T12:19:39;7.22;;;4.20;;
51216;SDS011;37283;49.760;8.648;2024-01-06T12:22:12;6.25;;;4.25;;
51216;SDS011;37283;49.760;8.648;2024-01-06T12:24:40;6.90;;;4.75;;
51216;SDS011;37283;49.760;8.648;2024-01-06T12:27:08;7.80;;;4.70;;
51216;SDS011;37283;49.760;8.648;2024-01-06T12:29:38;6.88;;;4.68;;
51216;SDS011;37283;49.760;8.648;2024-01-06T12:32:06;7.07;;;5.20;;
51216;SDS011;37283;49.760;8.648;2024-01-06T12:34:34;6.82;;;5.38;;
51216;SDS011;37283;49.760;8.648;2024-01-06T12:37:02;7.40;;;4.78;;
51216;SDS011;37283;49.760;8.648;2024-01-06T12:39:29;7.15;;;4.20;;
51216;SDS011;37283;49.760;8.648;2024-01-06T12:41:56;6.95;;;4.43;;
51216;SDS011;37283;49.760;8.648;2024-01-06T12:44:23;5.82;;;4.35;;
51216;SDS011;37283;49.760;8.648;2024-01-06T12:46:50;5.85;;;4.00;;
51216;SDS011;37283;49.760;8.648;2024-01-06T12:49:16;6.05;;;4.68;;
51216;SDS011;37283;49.760;8.648;2024-01-06T12:51:43;7.07;;;4.60;;
51216;SDS011;37283;49.760;8.648;2024-01-06T12:54:10;5.57;;;4.30;;
51216;SDS011;37283;49.760;8.648;2024-01-06T12:56:36;7.88;;;4.93;;
51216;SDS011;37283;49.760;8.648;2024-01-06T12:59:03;6.53;;;4.60;;
51216;SDS011;37283;49.760;8.648;2024-01-06T13:01:30;6.65;;;4.82;;
51216;SDS011;37283;49.760;8.648;2024-01-06T13:03:57;6.43;;;4.55;;
51216;SDS011;37283;49.760;8.648;2024-01-06T13:06:27;6.25;;;4.75;;
51216;SDS011;37283;49.760;8.648;2024-01-06T13:08:53;5.65;;;4.47;;
51216;SDS011;37283;49.760;8.648;2024-01-06T13:11:20;10.30;;;5.55;;
51216;SDS011;37283;49.760;8.648;2024-01-06T13:13:47;6.55;;;5.07;;
51216;SDS011;37283;49.760;8.648;2024-01-06T13:16:13;7.18;;;5.30;;
51216;SDS011;37283;49.760;8.648;2024-01-06T13:18:40;8.38;;;5.68;;
51216;SDS011;37283;49.760;8.648;2024-01-06T13:21:07;6.82;;;5.10;;
51216;SDS011;37283;49.760;8.648;2024-01-06T13:23:34;9.45;;;5.70;;
51216;SDS011;37283;49.760;8.648;2024-01-06T13:26:00;9.65;;;5.80;;
51216;SDS011;37283;49.760;8.648;2024-01-06T13:28:27;8.43;;;6.07;;
51216;SDS011;37283;49.760;8.648;2024-01-06T13:30:53;7.57;;;5.32;;
51216;SDS011;37283;49.760;8.648;2024-01-06T13:33:20;7.22;;;5.18;;
51216;SDS011;37283;49.760;8.648;2024-01-06T13:35:47;8.90;;;5.57;;
51216;SDS011;37283;49.760;8.648;2024-01-06T13:38:14;8.23;;;5.55;;
51216;SDS011;37283;49.760;8.648;2024-01-06T13:40:40;8.85;;;5.72;;
51216;SDS011;37283;49.760;8.648;2024-01-06T13:43:07;7.72;;;5.18;;
51216;SDS011;37283;49.760;8.648;2024-01-06T13:45:35;8.30;;;5.80;;
51216;SDS011;37283;49.760;8.648;2024-01-06T13:48:02;8.30;;;5.22;;
51216;SDS011;37283;49.760;8.648;2024-01-06T13:50:34;7.57;;;5.07;;
51216;SDS011;37283;49.760;8.648;2024-01-06T13:53:00;6.20;;;4.65;;
51216;SDS011;37283;49.760;8.648;2024-01-06T13:55:29;7.20;;;5.22;;
51216;SDS011;37283;49.760;8.648;2024-01-06T13:57:55;8.52;;;5.30;;
51216;SDS011;37283;49.760;8.648;2024-01-06T14:00:22;8.35;;;5.65;;
51216;SDS011;37283;49.760;8.648;2024-01-06T14:02:49;7.65;;;5.45;;
51216;SDS011;37283;49.760;8.648;2024-01-06T14:05:15;7.60;;;5.63;;
51216;SDS011;37283;49.760;8.648;2024-01-06T14:07:42;8.13;;;6.22;;
51216;SDS011;37283;49.760;8.648;2024-01-06T14:10:12;11.15;;;5.63;;
51216;SDS011;37283;49.760;8.648;2024-01-06T14:12:41;6.72;;;5.60;;
51216;SDS011;37283;49.760;8.648;2024-01-06T14:15:08;10.50;;;6.35;;
51216;SDS011;37283;49.760;8.648;2024-01-06T14:17:35;13.55;;;9.23;;
51216;SDS011;37283;49.760;8.648;2024-01-06T14:20:02;17.35;;;8.32;;
51216;SDS011;37283;49.760;8.648;2024-01-06T14:22:29;13.10;;;7.90;;
51216;SDS011;37283;49.760;8.648;2024-01-06T14:24:56;14.77;;;9.95;;
51216;SDS011;37283;49.760;8.648;2024-01-06T14:27:22;15.55;;;11.52;;
51216;SDS011;37283;49.760;8.648;2024-01-06T14:29:49;11.93;;;8.27;;
51216;SDS011;37283;49.760;8.648;2024-01-06T14:32:15;12.10;;;8.65;;
51216;SDS011;37283;49.760;8.648;2024-01-06T14:34:42;12.15;;;7.80;;
51216;SDS011;37283;49.760;8.648;2024-01-06T14:37:08;13.15;;;7.82;;
51216;SDS011;37283;49.760;8.648;2024-01-06T14:39:35;9.82;;;7.63;;
51216;SDS011;37283;49.760;8.648;2024-01-06T14:42:03;10.25;;;7.35;;
51216;SDS011;37283;49.760;8.648;2024-01-06T14:44:29;10.95;;;7.72;;
51216;SDS011;37283;49.760;8.648;2024-01-06T14:46:56;11.85;;;8.20;;
51216;SDS011;37283;49.760;8.648;2024-01-06T14:49:22;8.68;;;7.25;;
51216;SDS011;37283;49.760;8.648;2024-01-06T14:51:50;10.93;;;8.15;;
51216;SDS011;37283;49.760;8.648;2024-01-06T14:54:19;9.82;;;7.97;;
51216;SDS011;37283;49.760;8.648;2024-01-06T14:56:46;9.82;;;6.95;;
51216;SDS011;37283;49.760;8.648;2024-01-06T14:59:12;11.85;;;7.20;;
51216;SDS011;37283;49.760;8.648;2024-01-06T15:01:42;10.52;;;6.95;;
51216;SDS011;37283;49.760;8.648;2024-01-06T15:04:10;11.00;;;8.00;;
51216;SDS011;37283;49.760;8.648;2024-01-06T15:06:37;10.75;;;7.32;;
51216;SDS011;37283;49.760;8.648;2024-01-06T15:09:04;8.43;;;6.60;;
51216;SDS011;37283;49.760;8.648;2024-01-06T15:11:30;9.10;;;8.13;;
51216;SDS011;37283;49.760;8.648;2024-01-06T15:13:57;8.95;;;7.40;;
51216;SDS011;37283;49.760;8.648;2024-01-06T15:16:23;9.32;;;7.25;;
51216;SDS011;37283;49.760;8.648;2024-01-06T15:18:50;13.13;;;7.97;;
51216;SDS011;37283;49.760;8.648;2024-01-06T15:21:18;10.43;;;7.97;;
51216;SDS011;37283;49.760;8.648;2024-01-06T15:23:49;12.13;;;8.35;;
51216;SDS011;37283;49.760;8.648;2024-01-06T15:26:22;12.27;;;7.95;;
51216;SDS011;37283;49.760;8.648;2024-01-06T15:28:49;10.73;;;7.80;;
51216;SDS011;37283;49.760;8.648;2024-01-06T15:31:16;9.27;;;7.82;;
51216;SDS011;37283;49.760;8.648;2024-01-06T15:33:43;10.18;;;8.15;;
51216;SDS011;37283;49.760;8.648;2024-01-06T15:36:10;12.63;;;8.82;;
51216;SDS011;37283;49.760;8.648;2024-01-06T15:38:36;12.93;;;9.15;;
51216;SDS011;37283;49.760;8.648;2024-01-06T15:41:03;16.33;;;10.30;;
51216;SDS011;37283;49.760;8.648;2024-01-06T15:43:31;17.75;;;12.85;;
51216;SDS011;37283;49.760;8.648;2024-01-06T15:45:58;16.67;;;12.05;;
51216;SDS011;37283;49.760;8.648;2024-01-06T15:48:25;13.43;;;10.52;;
51216;SDS011;37283;49.760;8.648;2024-01-06T15:50:52;15.35;;;11.85;;
51216;SDS011;37283;49.760;8.648;2024-01-06T15:53:18;14.85;;;11.18;;
51216;SDS011;37283;49.760;8.648;2024-01-06T15:55:45;13.40;;;10.63;;
51216;SDS011;37283;49.760;8.648;2024-01-06T15:58:11;15.40;;;11.07;;
51216;SDS011;37283;49.760;8.648;2024-01-06T16:00:38;20.13;;;11.38;;
51216;SDS011;37283;49.760;8.648;2024-01-06T16:03:04;14.70;;;10.93;;
51216;SDS011;37283;49.760;8.648;2024-01-06T16:05:32;13.23;;;10.15;;
51216;SDS011;37283;49.760;8.648;2024-01-06T16:07:59;11.45;;;8.85;;
51216;SDS011;37283;49.760;8.648;2024-01-06T16:10:27;10.32;;;7.90;;
51216;SDS011;37283;49.760;8.648;2024-01-06T16:12:54;13.65;;;9.88;;
51216;SDS011;37283;49.760;8.648;2024-01-06T16:15:23;14.32;;;11.57;;
51216;SDS011;37283;49.760;8.648;2024-01-06T16:17:50;15.65;;;12.77;;
51216;SDS011;37283;49.760;8.648;2024-01-06T16:20:17;16.95;;;13.48;;
51216;SDS011;37283;49.760;8.648;2024-01-06T16:22:43;20.77;;;14.90;;
51216;SDS011;37283;49.760;8.648;2024-01-06T16:25:12;21.17;;;15.45;;
51216;SDS011;37283;49.760;8.648;2024-01-06T16:27:39;16.15;;;13.27;;
51216;SDS011;37283;49.760;8.648;2024-01-06T16:30:07;18.30;;;14.13;;
51216;SDS011;37283;49.760;8.648;2024-01-06T16:32:34;16.30;;;13.38;;
51216;SDS011;37283;49.760;8.648;2024-01-06T16:35:01;17.60;;;13.63;;
51216;SDS011;37283;49.760;8.648;2024-01-06T16:37:28;18.90;;;14.45;;
51216;SDS011;37283;49.760;8.648;2024-01-06T16:39:54;15.57;;;13.35;;
51216;SDS011;37283;49.760;8.648;2024-01-06T16:42:21;15.38;;;12.85;;
51216;SDS011;37283;49.760;8.648;2024-01-06T16:44:47;16.63;;;14.77;;
51216;SDS011;37283;49.760;8.648;2024-01-06T16:47:14;16.55;;;14.00;;
51216;SDS011;37283;49.760;8.648;2024-01-06T16:49:41;19.17;;;13.75;;
51216;SDS011;37283;49.760;8.648;2024-01-06T16:52:07;16.15;;;12.30;;
51216;SDS011;37283;49.760;8.648;2024-01-06T16:54:34;14.75;;;12.88;;
51216;SDS011;37283;49.760;8.648;2024-01-06T16:57:01;13.57;;;11.88;;
51216;SDS011;37283;49.760;8.648;2024-01-06T16:59:30;15.73;;;13.43;;
51216;SDS011;37283;49.760;8.648;2024-01-06T17:02:00;16.05;;;12.93;;
51216;SDS011;37283;49.760;8.648;2024-01-06T17:04:28;16.27;;;12.20;;
51216;SDS011;37283;49.760;8.648;2024-01-06T17:06:56;17.33;;;13.77;;
51216;SDS011;37283;49.760;8.648;2024-01-06T17:09:25;17.58;;;13.95;;
51216;SDS011;37283;49.760;8.648;2024-01-06T17:11:52;21.55;;;14.25;;
51216;SDS011;37283;49.760;8.648;2024-01-06T17:14:19;16.20;;;12.80;;
51216;SDS011;37283;49.760;8.648;2024-01-06T17:16:45;13.60;;;11.52;;
51216;SDS011;37283;49.760;8.648;2024-01-06T17:19:12;13.93;;;10.95;;
51216;SDS011;37283;49.760;8.648;2024-01-06T17:21:39;15.75;;;11.98;;
51216;SDS011;37283;49.760;8.648;2024-01-06T17:24:06;16.17;;;11.68;;
51216;SDS011;37283;49.760;8.648;2024-01-06T17:26:32;15.02;;;11.70;;
51216;SDS011;37283;49.760;8.648;2024-01-06T17:28:59;15.43;;;12.00;;
51216;SDS011;37283;49.760;8.648;2024-01-06T17:31:28;16.38;;;11.18;;
51216;SDS011;37283;49.760;8.648;2024-01-06T17:33:55;9.55;;;8.25;;